sensor_id;sensor_type;location;lat;lon;timestamp;temperature;humidity
7030;DHT22;3556;53.500;10.176;2023-08-12T00:01:09;20.10;99.90
7030;DHT22;3556;53.500;10.176;2023-08-12T00:03:35;20.10;99.90
7030;DHT22;3556;53.500;10.176;2023-08-12T00:06:01;20.00;99.90
7030;DHT22;3556;53.500;10.176;2023-08-12T00:08:27;20.00;99.90
7030;DHT22;3556;53.500;10.176;2023-08-12T00:10:53;20.00;99.90
7030;DHT22;3556;53.500;10.176;2023-08-12T00:13:18;20.00;99.90
7030;DHT22;3556;53.500;10.176;2023-08-12T00:15:44;20.00;99.90
7030;DHT22;3556;53.500;10.176;2023-08-12T00:18:10;20.00;99.90
7030;DHT22;3556;53.500;10.176;2023-08-12T00:20:35;19.90;99.90
7030;DHT22;3556;53.500;10.176;2023-08-12T00:23:03;19.90;99.90
7030;DHT22;3556;53.500;10.176;2023-08-12T00:25:29;19.90;99.90
7030;DHT22;3556;53.500;10.176;2023-08-12T00:27:55;19.90;99.90
7030;DHT22;3556;53.500;10.176;2023-08-12T00:30:20;19.90;99.90
7030;DHT22;3556;53.500;10.176;2023-08-12T00:32:46;19.90;99.90
7030;DHT22;3556;53.500;10.176;2023-08-12T00:35:12;19.90;99.90
7030;DHT22;3556;53.500;10.176;2023-08-12T00:37:37;19.90;99.90
7030;DHT22;3556;53.500;10.176;2023-08-12T00:40:04;19.90;99.90
7030;DHT22;3556;53.500;10.176;2023-08-12T00:42:29;19.80;99.90
7030;DHT22;3556;53.500;10.176;2023-08-12T00:44:55;19.80;99.90
7030;DHT22;3556;53.500;10.176;2023-08-12T00:47:22;19.80;99.90
7030;DHT22;3556;53.500;10.176;2023-08-12T00:49:48;19.80;99.90
7030;DHT22;3556;53.500;10.176;2023-08-12T00:52:14;19.70;99.90
7030;DHT22;3556;53.500;10.176;2023-08-12T00:54:40;19.80;99.90
7030;DHT22;3556;53.500;10.176;2023-08-12T00:57:07;19.70;99.90
7030;DHT22;3556;53.500;10.176;2023-08-12T00:59:35;19.70;99.90
7030;DHT22;3556;53.500;10.176;2023-08-12T01:02:01;19.70;99.90
7030;DHT22;3556;53.500;10.176;2023-08-12T01:04:27;19.70;99.90
7030;DHT22;3556;53.500;10.176;2023-08-12T01:06:53;19.70;99.90
7030;DHT22;3556;53.500;10.176;2023-08-12T01:09:18;19.70;99.90
7030;DHT22;3556;53.500;10.176;2023-08-12T01:11:55;19.60;99.90
7030;DHT22;3556;53.500;10.176;2023-08-12T01:14:24;19.60;99.90
7030;DHT22;3556;53.500;10.176;2023-08-12T01:16:59;19.60;99.90
7030;DHT22;3556;53.500;10.176;2023-08-12T01:19:34;19.50;99.90
7030;DHT22;3556;53.500;10.176;2023-08-12T01:22:03;19.60;99.90
7030;DHT22;3556;53.500;10.176;2023-08-12T01:27:02;19.50;99.90
7030;DHT22;3556;53.500;10.176;2023-08-12T01:29:27;19.50;99.90
7030;DHT22;3556;53.500;10.176;2023-08-12T01:32:22;19.50;99.90
7030;DHT22;3556;53.500;10.176;2023-08-12T01:34:50;19.50;99.90
7030;DHT22;3556;53.500;10.176;2023-08-12T01:37:27;19.50;99.90
7030;DHT22;3556;53.500;10.176;2023-08-12T01:39:54;19.50;99.90
7030;DHT22;3556;53.500;10.176;2023-08-12T01:42:20;19.40;99.90
7030;DHT22;3556;53.500;10.176;2023-08-12T01:44:47;19.40;99.90
7030;DHT22;3556;53.500;10.176;2023-08-12T01:47:13;19.30;99.90
7030;DHT22;3556;53.500;10.176;2023-08-12T01:49:39;19.30;99.90
7030;DHT22;3556;53.500;10.176;2023-08-12T01:52:04;19.30;99.90
7030;DHT22;3556;53.500;10.176;2023-08-12T01:54:30;19.30;99.90
7030;DHT22;3556;53.500;10.176;2023-08-12T01:57:04;19.30;99.90
7030;DHT22;3556;53.500;10.176;2023-08-12T01:59:37;19.30;99.90
7030;DHT22;3556;53.500;10.176;2023-08-12T02:02:03;19.30;99.90
7030;DHT22;3556;53.500;10.176;2023-08-12T02:04:29;19.30;99.90
7030;DHT22;3556;53.500;10.176;2023-08-12T02:06:55;19.20;99.90
7030;DHT22;3556;53.500;10.176;2023-08-12T02:09:21;19.20;99.90
7030;DHT22;3556;53.500;10.176;2023-08-12T02:11:47;19.20;99.90
7030;DHT22;3556;53.500;10.176;2023-08-12T02:14:13;19.20;99.90
7030;DHT22;3556;53.500;10.176;2023-08-12T02:16:39;19.20;99.90
7030;DHT22;3556;53.500;10.176;2023-08-12T02:19:04;19.20;99.90
7030;DHT22;3556;53.500;10.176;2023-08-12T02:21:30;19.10;99.90
7030;DHT22;3556;53.500;10.176;2023-08-12T02:23:55;19.10;99.90
7030;DHT22;3556;53.500;10.176;2023-08-12T02:26:21;19.10;99.90
7030;DHT22;3556;53.500;10.176;2023-08-12T02:28:46;19.00;99.90
7030;DHT22;3556;53.500;10.176;2023-08-12T02:31:12;19.00;99.90
7030;DHT22;3556;53.500;10.176;2023-08-12T02:33:38;19.00;99.90
7030;DHT22;3556;53.500;10.176;2023-08-12T02:36:03;19.00;99.90
7030;DHT22;3556;53.500;10.176;2023-08-12T02:38:29;18.90;99.90
7030;DHT22;3556;53.500;10.176;2023-08-12T02:40:55;19.00;99.90
7030;DHT22;3556;53.500;10.176;2023-08-12T02:43:21;18.90;99.90
7030;DHT22;3556;53.500;10.176;2023-08-12T02:45:46;18.90;99.90
7030;DHT22;3556;53.500;10.176;2023-08-12T02:48:12;18.90;99.90
7030;DHT22;3556;53.500;10.176;2023-08-12T02:50:38;18.80;99.90
7030;DHT22;3556;53.500;10.176;2023-08-12T02:53:05;18.80;99.90
7030;DHT22;3556;53.500;10.176;2023-08-12T02:55:31;18.80;99.90
7030;DHT22;3556;53.500;10.176;2023-08-12T02:57:58;18.70;99.90
7030;DHT22;3556;53.500;10.176;2023-08-12T03:00:23;18.70;99.90
7030;DHT22;3556;53.500;10.176;2023-08-12T03:02:49;18.70;99.90
7030;DHT22;3556;53.500;10.176;2023-08-12T03:05:15;18.70;99.90
7030;DHT22;3556;53.500;10.176;2023-08-12T03:07:41;18.60;99.90
7030;DHT22;3556;53.500;10.176;2023-08-12T03:10:07;18.60;99.90
7030;DHT22;3556;53.500;10.176;2023-08-12T03:12:33;18.60;99.90
7030;DHT22;3556;53.500;10.176;2023-08-12T03:14:59;18.60;99.90
7030;DHT22;3556;53.500;10.176;2023-08-12T03:17:25;18.50;99.90
7030;DHT22;3556;53.500;10.176;2023-08-12T03:19:51;18.50;99.90
7030;DHT22;3556;53.500;10.176;2023-08-12T03:22:16;18.50;99.90
7030;DHT22;3556;53.500;10.176;2023-08-12T03:24:42;18.50;99.90
7030;DHT22;3556;53.500;10.176;2023-08-12T03:27:07;18.50;99.90
7030;DHT22;3556;53.500;10.176;2023-08-12T03:29:33;18.50;99.90
7030;DHT22;3556;53.500;10.176;2023-08-12T03:31:59;18.50;99.90
7030;DHT22;3556;53.500;10.176;2023-08-12T03:34:24;18.40;99.90
7030;DHT22;3556;53.500;10.176;2023-08-12T03:36:50;18.40;99.90
7030;DHT22;3556;53.500;10.176;2023-08-12T03:39:16;18.30;99.90
7030;DHT22;3556;53.500;10.176;2023-08-12T03:41:42;18.30;99.90
7030;DHT22;3556;53.500;10.176;2023-08-12T03:44:07;18.30;99.90
7030;DHT22;3556;53.500;10.176;2023-08-12T03:46:33;18.30;99.90
7030;DHT22;3556;53.500;10.176;2023-08-12T03:48:59;18.30;99.90
7030;DHT22;3556;53.500;10.176;2023-08-12T03:51:25;18.30;99.90
7030;DHT22;3556;53.500;10.176;2023-08-12T03:53:50;18.20;99.90
7030;DHT22;3556;53.500;10.176;2023-08-12T03:56:16;18.20;99.90
7030;DHT22;3556;53.500;10.176;2023-08-12T03:58:44;18.20;99.90
7030;DHT22;3556;53.500;10.176;2023-08-12T04:01:10;18.20;99.90
7030;DHT22;3556;53.500;10.176;2023-08-12T04:03:35;18.20;99.90
7030;DHT22;3556;53.500;10.176;2023-08-12T04:06:01;18.20;99.90
7030;DHT22;3556;53.500;10.176;2023-08-12T04:08:28;18.20;99.90
7030;DHT22;3556;53.500;10.176;2023-08-12T04:10:54;18.20;99.90
7030;DHT22;3556;53.500;10.176;2023-08-12T04:13:20;18.20;99.90
7030;DHT22;3556;53.500;10.176;2023-08-12T04:15:50;18.10;99.90
7030;DHT22;3556;53.500;10.176;2023-08-12T04:18:16;18.10;99.90
7030;DHT22;3556;53.500;10.176;2023-08-12T04:20:42;18.10;99.90
7030;DHT22;3556;53.500;10.176;2023-08-12T04:23:07;18.10;99.90
7030;DHT22;3556;53.500;10.176;2023-08-12T04:25:33;18.10;99.90
7030;DHT22;3556;53.500;10.176;2023-08-12T04:27:59;18.20;99.90
7030;DHT22;3556;53.500;10.176;2023-08-12T04:30:24;18.10;99.90
7030;DHT22;3556;53.500;10.176;2023-08-12T04:32:50;18.10;99.90
7030;DHT22;3556;53.500;10.176;2023-08-12T04:35:16;18.10;99.90
7030;DHT22;3556;53.500;10.176;2023-08-12T04:37:41;18.10;99.90
7030;DHT22;3556;53.500;10.176;2023-08-12T04:40:08;18.10;99.90
7030;DHT22;3556;53.500;10.176;2023-08-12T04:42:34;18.10;99.90
7030;DHT22;3556;53.500;10.176;2023-08-12T04:44:59;18.10;99.90
7030;DHT22;3556;53.500;10.176;2023-08-12T04:47:25;18.10;99.90
7030;DHT22;3556;53.500;10.176;2023-08-12T04:49:51;18.10;99.90
7030;DHT22;3556;53.500;10.176;2023-08-12T04:52:18;18.10;99.90
7030;DHT22;3556;53.500;10.176;2023-08-12T04:54:44;18.10;99.90
7030;DHT22;3556;53.500;10.176;2023-08-12T04:57:09;18.10;99.90
7030;DHT22;3556;53.500;10.176;2023-08-12T04:59:35;18.10;99.90
7030;DHT22;3556;53.500;10.176;2023-08-12T05:02:01;18.10;99.90
7030;DHT22;3556;53.500;10.176;2023-08-12T05:04:26;18.10;99.90
7030;DHT22;3556;53.500;10.176;2023-08-12T05:06:52;18.10;99.90
7030;DHT22;3556;53.500;10.176;2023-08-12T05:09:18;18.10;99.90
7030;DHT22;3556;53.500;10.176;2023-08-12T05:11:43;18.10;99.90
7030;DHT22;3556;53.500;10.176;2023-08-12T05:14:09;18.10;99.90
7030;DHT22;3556;53.500;10.176;2023-08-12T05:16:34;18.10;99.90
7030;DHT22;3556;53.500;10.176;2023-08-12T05:19:00;18.10;99.90
7030;DHT22;3556;53.500;10.176;2023-08-12T05:21:26;18.10;99.90
7030;DHT22;3556;53.500;10.176;2023-08-12T05:23:52;18.20;99.90
7030;DHT22;3556;53.500;10.176;2023-08-12T05:26:17;18.20;99.90
7030;DHT22;3556;53.500;10.176;2023-08-12T05:28:43;18.20;99.90
7030;DHT22;3556;53.500;10.176;2023-08-12T05:31:08;18.30;99.90
7030;DHT22;3556;53.500;10.176;2023-08-12T05:33:34;18.30;99.90
7030;DHT22;3556;53.500;10.176;2023-08-12T05:36:00;18.30;99.90
7030;DHT22;3556;53.500;10.176;2023-08-12T05:38:26;18.30;99.90
7030;DHT22;3556;53.500;10.176;2023-08-12T05:40:51;18.30;99.90
7030;DHT22;3556;53.500;10.176;2023-08-12T05:43:17;18.30;99.90
7030;DHT22;3556;53.500;10.176;2023-08-12T05:45:42;18.40;99.90
7030;DHT22;3556;53.500;10.176;2023-08-12T05:48:08;18.40;99.90
7030;DHT22;3556;53.500;10.176;2023-08-12T05:50:34;18.40;99.90
7030;DHT22;3556;53.500;10.176;2023-08-12T05:52:59;18.40;99.90
7030;DHT22;3556;53.500;10.176;2023-08-12T05:55:25;18.40;99.90
7030;DHT22;3556;53.500;10.176;2023-08-12T05:57:50;18.50;99.90
7030;DHT22;3556;53.500;10.176;2023-08-12T06:00:16;18.50;99.90
7030;DHT22;3556;53.500;10.176;2023-08-12T06:02:42;18.40;99.90
7030;DHT22;3556;53.500;10.176;2023-08-12T06:05:08;18.50;99.90
7030;DHT22;3556;53.500;10.176;2023-08-12T06:07:33;18.50;99.90
7030;DHT22;3556;53.500;10.176;2023-08-12T06:10:00;18.50;99.90
7030;DHT22;3556;53.500;10.176;2023-08-12T06:12:26;18.50;99.90
7030;DHT22;3556;53.500;10.176;2023-08-12T06:14:51;18.50;99.90
7030;DHT22;3556;53.500;10.176;2023-08-12T06:17:17;18.50;99.90
7030;DHT22;3556;53.500;10.176;2023-08-12T06:19:42;18.50;99.90
7030;DHT22;3556;53.500;10.176;2023-08-12T06:22:08;18.50;99.90
7030;DHT22;3556;53.500;10.176;2023-08-12T06:24:33;18.50;99.90
7030;DHT22;3556;53.500;10.176;2023-08-12T06:26:59;18.50;99.90
7030;DHT22;3556;53.500;10.176;2023-08-12T06:29:25;18.50;99.90
7030;DHT22;3556;53.500;10.176;2023-08-12T06:31:51;18.50;99.90
7030;DHT22;3556;53.500;10.176;2023-08-12T06:34:17;18.50;99.90
7030;DHT22;3556;53.500;10.176;2023-08-12T06:36:43;18.50;99.90
7030;DHT22;3556;53.500;10.176;2023-08-12T06:39:08;18.50;99.90
7030;DHT22;3556;53.500;10.176;2023-08-12T06:41:34;18.50;99.90
7030;DHT22;3556;53.500;10.176;2023-08-12T06:43:59;18.60;99.90
7030;DHT22;3556;53.500;10.176;2023-08-12T06:46:26;18.60;99.90
7030;DHT22;3556;53.500;10.176;2023-08-12T06:48:52;18.60;99.90
7030;DHT22;3556;53.500;10.176;2023-08-12T06:51:17;18.70;99.90
7030;DHT22;3556;53.500;10.176;2023-08-12T06:53:43;18.70;99.90
7030;DHT22;3556;53.500;10.176;2023-08-12T06:56:08;18.70;99.90
7030;DHT22;3556;53.500;10.176;2023-08-12T06:58:34;18.70;99.90
7030;DHT22;3556;53.500;10.176;2023-08-12T07:01:00;18.70;99.90
7030;DHT22;3556;53.500;10.176;2023-08-12T07:03:25;18.70;99.90
7030;DHT22;3556;53.500;10.176;2023-08-12T07:05:53;18.80;99.90
7030;DHT22;3556;53.500;10.176;2023-08-12T07:08:18;18.80;99.90
7030;DHT22;3556;53.500;10.176;2023-08-12T07:10:44;18.80;99.90
7030;DHT22;3556;53.500;10.176;2023-08-12T07:13:09;18.80;99.90
7030;DHT22;3556;53.500;10.176;2023-08-12T07:15:35;18.90;99.90
7030;DHT22;3556;53.500;10.176;2023-08-12T07:18:01;18.80;99.90
7030;DHT22;3556;53.500;10.176;2023-08-12T07:20:27;18.90;99.90
7030;DHT22;3556;53.500;10.176;2023-08-12T07:22:53;19.00;99.90
7030;DHT22;3556;53.500;10.176;2023-08-12T07:25:18;19.10;99.90
7030;DHT22;3556;53.500;10.176;2023-08-12T07:27:44;19.20;99.90
7030;DHT22;3556;53.500;10.176;2023-08-12T07:30:10;19.20;99.90
7030;DHT22;3556;53.500;10.176;2023-08-12T07:32:38;19.20;99.90
7030;DHT22;3556;53.500;10.176;2023-08-12T07:35:05;19.30;99.90
7030;DHT22;3556;53.500;10.176;2023-08-12T07:37:34;19.30;99.90
7030;DHT22;3556;53.500;10.176;2023-08-12T07:39:59;19.30;99.90
7030;DHT22;3556;53.500;10.176;2023-08-12T07:42:25;19.30;99.90
7030;DHT22;3556;53.500;10.176;2023-08-12T07:44:51;19.40;99.90
7030;DHT22;3556;53.500;10.176;2023-08-12T07:47:16;19.40;99.90
7030;DHT22;3556;53.500;10.176;2023-08-12T07:49:42;19.40;99.90
7030;DHT22;3556;53.500;10.176;2023-08-12T07:52:08;19.50;99.90
7030;DHT22;3556;53.500;10.176;2023-08-12T07:54:34;19.50;99.90
7030;DHT22;3556;53.500;10.176;2023-08-12T07:56:59;19.60;99.90
7030;DHT22;3556;53.500;10.176;2023-08-12T07:59:25;19.60;99.90
7030;DHT22;3556;53.500;10.176;2023-08-12T08:01:51;19.70;99.90
7030;DHT22;3556;53.500;10.176;2023-08-12T08:04:17;19.70;99.90
7030;DHT22;3556;53.500;10.176;2023-08-12T08:06:43;19.80;99.90
7030;DHT22;3556;53.500;10.176;2023-08-12T08:09:09;19.80;99.90
7030;DHT22;3556;53.500;10.176;2023-08-12T08:11:34;19.80;99.90
7030;DHT22;3556;53.500;10.176;2023-08-12T08:14:00;19.90;99.90
7030;DHT22;3556;53.500;10.176;2023-08-12T08:16:26;20.00;99.90
7030;DHT22;3556;53.500;10.176;2023-08-12T08:18:52;20.00;99.90
7030;DHT22;3556;53.500;10.176;2023-08-12T08:21:17;20.10;99.90
7030;DHT22;3556;53.500;10.176;2023-08-12T08:23:43;20.10;99.90
7030;DHT22;3556;53.500;10.176;2023-08-12T08:26:09;20.20;99.90
7030;DHT22;3556;53.500;10.176;2023-08-12T08:28:35;20.20;99.90
7030;DHT22;3556;53.500;10.176;2023-08-12T08:31:00;20.30;99.90
7030;DHT22;3556;53.500;10.176;2023-08-12T08:33:26;20.30;99.90
7030;DHT22;3556;53.500;10.176;2023-08-12T08:35:53;20.40;99.90
7030;DHT22;3556;53.500;10.176;2023-08-12T08:38:18;20.40;99.90
7030;DHT22;3556;53.500;10.176;2023-08-12T08:40:44;20.40;99.90
7030;DHT22;3556;53.500;10.176;2023-08-12T08:43:10;20.40;99.90
7030;DHT22;3556;53.500;10.176;2023-08-12T08:45:38;20.50;99.90
7030;DHT22;3556;53.500;10.176;2023-08-12T08:48:05;20.50;99.90
7030;DHT22;3556;53.500;10.176;2023-08-12T08:50:31;20.50;99.90
7030;DHT22;3556;53.500;10.176;2023-08-12T08:52:57;20.60;99.90
7030;DHT22;3556;53.500;10.176;2023-08-12T08:55:25;20.60;99.90
7030;DHT22;3556;53.500;10.176;2023-08-12T08:57:51;20.70;99.90
7030;DHT22;3556;53.500;10.176;2023-08-12T09:00:18;20.80;99.90
7030;DHT22;3556;53.500;10.176;2023-08-12T09:02:47;20.80;99.90
7030;DHT22;3556;53.500;10.176;2023-08-12T09:05:16;20.90;99.90
7030;DHT22;3556;53.500;10.176;2023-08-12T09:07:43;20.90;99.90
7030;DHT22;3556;53.500;10.176;2023-08-12T09:10:10;21.00;99.90
7030;DHT22;3556;53.500;10.176;2023-08-12T09:12:37;21.00;99.90
7030;DHT22;3556;53.500;10.176;2023-08-12T09:15:03;21.00;99.90
7030;DHT22;3556;53.500;10.176;2023-08-12T09:17:30;21.00;99.90
7030;DHT22;3556;53.500;10.176;2023-08-12T09:19:57;21.00;99.90
7030;DHT22;3556;53.500;10.176;2023-08-12T09:22:24;21.10;99.90
7030;DHT22;3556;53.500;10.176;2023-08-12T09:24:56;21.10;99.90
7030;DHT22;3556;53.500;10.176;2023-08-12T09:27:22;21.20;99.90
7030;DHT22;3556;53.500;10.176;2023-08-12T09:29:47;21.20;99.90
7030;DHT22;3556;53.500;10.176;2023-08-12T09:32:18;21.20;99.90
7030;DHT22;3556;53.500;10.176;2023-08-12T09:34:47;21.20;99.90
7030;DHT22;3556;53.500;10.176;2023-08-12T09:37:14;21.30;99.90
7030;DHT22;3556;53.500;10.176;2023-08-12T09:39:41;21.30;99.90
7030;DHT22;3556;53.500;10.176;2023-08-12T09:42:06;21.40;99.90
7030;DHT22;3556;53.500;10.176;2023-08-12T09:44:36;21.40;99.90
7030;DHT22;3556;53.500;10.176;2023-08-12T09:47:02;21.40;99.90
7030;DHT22;3556;53.500;10.176;2023-08-12T09:49:28;21.40;99.90
7030;DHT22;3556;53.500;10.176;2023-08-12T09:51:55;21.40;99.90
7030;DHT22;3556;53.500;10.176;2023-08-12T09:54:21;21.40;99.90
7030;DHT22;3556;53.500;10.176;2023-08-12T09:56:48;21.40;99.90
7030;DHT22;3556;53.500;10.176;2023-08-12T09:59:18;21.50;99.90
7030;DHT22;3556;53.500;10.176;2023-08-12T10:01:45;21.40;99.90
7030;DHT22;3556;53.500;10.176;2023-08-12T10:04:11;21.50;99.90
7030;DHT22;3556;53.500;10.176;2023-08-12T10:06:40;21.40;99.90
7030;DHT22;3556;53.500;10.176;2023-08-12T10:09:06;21.40;99.90
7030;DHT22;3556;53.500;10.176;2023-08-12T10:11:35;21.40;99.90
7030;DHT22;3556;53.500;10.176;2023-08-12T10:14:02;21.40;99.90
7030;DHT22;3556;53.500;10.176;2023-08-12T10:16:29;21.40;99.90
7030;DHT22;3556;53.500;10.176;2023-08-12T10:18:57;21.40;99.90
7030;DHT22;3556;53.500;10.176;2023-08-12T10:21:23;21.50;99.90
7030;DHT22;3556;53.500;10.176;2023-08-12T10:23:50;21.50;99.90
7030;DHT22;3556;53.500;10.176;2023-08-12T10:26:17;21.60;99.90
7030;DHT22;3556;53.500;10.176;2023-08-12T10:28:43;21.70;99.90
7030;DHT22;3556;53.500;10.176;2023-08-12T10:31:11;21.80;99.90
7030;DHT22;3556;53.500;10.176;2023-08-12T10:33:40;22.00;99.90
7030;DHT22;3556;53.500;10.176;2023-08-12T10:36:06;22.00;99.90
7030;DHT22;3556;53.500;10.176;2023-08-12T10:38:33;22.00;99.90
7030;DHT22;3556;53.500;10.176;2023-08-12T10:41:19;22.00;99.90
7030;DHT22;3556;53.500;10.176;2023-08-12T10:44:05;22.00;99.90
7030;DHT22;3556;53.500;10.176;2023-08-12T10:46:33;22.00;99.90
7030;DHT22;3556;53.500;10.176;2023-08-12T10:49:06;22.00;99.90
7030;DHT22;3556;53.500;10.176;2023-08-12T10:54:23;21.90;99.90
7030;DHT22;3556;53.500;10.176;2023-08-12T11:02:30;21.90;99.90
7030;DHT22;3556;53.500;10.176;2023-08-12T11:05:04;22.00;99.90
7030;DHT22;3556;53.500;10.176;2023-08-12T11:07:44;22.20;99.90
7030;DHT22;3556;53.500;10.176;2023-08-12T11:12:39;22.60;99.90
7030;DHT22;3556;53.500;10.176;2023-08-12T11:15:05;22.70;99.90
7030;DHT22;3556;53.500;10.176;2023-08-12T11:17:38;22.90;99.90
7030;DHT22;3556;53.500;10.176;2023-08-12T11:20:09;23.00;99.90
7030;DHT22;3556;53.500;10.176;2023-08-12T11:22:37;23.20;99.90
7030;DHT22;3556;53.500;10.176;2023-08-12T11:25:08;23.20;99.90
7030;DHT22;3556;53.500;10.176;2023-08-12T11:27:54;23.20;99.90
7030;DHT22;3556;53.500;10.176;2023-08-12T11:30:21;23.20;99.90
7030;DHT22;3556;53.500;10.176;2023-08-12T11:32:49;23.20;99.90
7030;DHT22;3556;53.500;10.176;2023-08-12T11:35:17;23.10;99.90
7030;DHT22;3556;53.500;10.176;2023-08-12T11:37:45;23.00;99.90
7030;DHT22;3556;53.500;10.176;2023-08-12T11:40:15;23.00;99.90
7030;DHT22;3556;53.500;10.176;2023-08-12T11:42:51;22.90;99.90
7030;DHT22;3556;53.500;10.176;2023-08-12T11:45:19;22.90;99.90
7030;DHT22;3556;53.500;10.176;2023-08-12T11:47:46;22.80;99.90
7030;DHT22;3556;53.500;10.176;2023-08-12T11:50:23;22.70;99.90
7030;DHT22;3556;53.500;10.176;2023-08-12T11:52:50;22.70;99.90
7030;DHT22;3556;53.500;10.176;2023-08-12T11:55:16;22.70;99.90
7030;DHT22;3556;53.500;10.176;2023-08-12T11:57:43;22.60;99.90
7030;DHT22;3556;53.500;10.176;2023-08-12T12:00:11;22.60;99.90
7030;DHT22;3556;53.500;10.176;2023-08-12T12:02:45;22.50;99.90
7030;DHT22;3556;53.500;10.176;2023-08-12T12:05:12;22.50;99.90
7030;DHT22;3556;53.500;10.176;2023-08-12T12:07:38;22.40;99.90
7030;DHT22;3556;53.500;10.176;2023-08-12T12:10:04;22.30;99.90
7030;DHT22;3556;53.500;10.176;2023-08-12T12:12:36;22.30;99.90
7030;DHT22;3556;53.500;10.176;2023-08-12T12:15:02;22.30;99.90
7030;DHT22;3556;53.500;10.176;2023-08-12T12:17:28;22.30;99.90
7030;DHT22;3556;53.500;10.176;2023-08-12T12:19:58;22.30;99.90
7030;DHT22;3556;53.500;10.176;2023-08-12T12:22:29;22.30;99.90
7030;DHT22;3556;53.500;10.176;2023-08-12T12:24:58;22.30;99.90
7030;DHT22;3556;53.500;10.176;2023-08-12T12:27:24;22.30;99.90
7030;DHT22;3556;53.500;10.176;2023-08-12T12:29:50;22.30;99.90
7030;DHT22;3556;53.500;10.176;2023-08-12T12:32:18;22.30;99.90
7030;DHT22;3556;53.500;10.176;2023-08-12T12:34:44;22.30;99.90
7030;DHT22;3556;53.500;10.176;2023-08-12T12:37:10;22.40;99.90
7030;DHT22;3556;53.500;10.176;2023-08-12T12:39:36;22.40;99.90
7030;DHT22;3556;53.500;10.176;2023-08-12T12:42:02;22.40;99.90
7030;DHT22;3556;53.500;10.176;2023-08-12T12:44:27;22.50;99.90
7030;DHT22;3556;53.500;10.176;2023-08-12T12:46:53;22.60;99.90
7030;DHT22;3556;53.500;10.176;2023-08-12T12:49:19;22.70;99.90
7030;DHT22;3556;53.500;10.176;2023-08-12T12:51:45;22.70;99.90
7030;DHT22;3556;53.500;10.176;2023-08-12T12:54:11;22.80;99.90
7030;DHT22;3556;53.500;10.176;2023-08-12T12:56:36;22.90;99.90
7030;DHT22;3556;53.500;10.176;2023-08-12T12:59:02;22.90;99.90
7030;DHT22;3556;53.500;10.176;2023-08-12T13:01:27;22.90;99.90
7030;DHT22;3556;53.500;10.176;2023-08-12T13:03:53;22.90;99.90
7030;DHT22;3556;53.500;10.176;2023-08-12T13:06:19;22.90;99.90
7030;DHT22;3556;53.500;10.176;2023-08-12T13:08:44;22.90;99.90
7030;DHT22;3556;53.500;10.176;2023-08-12T13:11:10;22.90;99.90
7030;DHT22;3556;53.500;10.176;2023-08-12T13:13:35;22.90;99.90
7030;DHT22;3556;53.500;10.176;2023-08-12T13:16:01;22.80;99.90
7030;DHT22;3556;53.500;10.176;2023-08-12T13:18:26;22.80;99.90
7030;DHT22;3556;53.500;10.176;2023-08-12T13:20:52;22.70;99.90
7030;DHT22;3556;53.500;10.176;2023-08-12T13:23:18;22.60;99.90
7030;DHT22;3556;53.500;10.176;2023-08-12T13:25:43;22.50;99.90
7030;DHT22;3556;53.500;10.176;2023-08-12T13:28:09;22.50;99.90
7030;DHT22;3556;53.500;10.176;2023-08-12T13:30:35;22.40;99.90
7030;DHT22;3556;53.500;10.176;2023-08-12T13:33:00;22.30;99.90
7030;DHT22;3556;53.500;10.176;2023-08-12T13:35:26;22.30;99.90
7030;DHT22;3556;53.500;10.176;2023-08-12T13:37:51;22.20;99.90
7030;DHT22;3556;53.500;10.176;2023-08-12T13:40:17;22.10;99.90
7030;DHT22;3556;53.500;10.176;2023-08-12T13:42:43;22.10;99.90
7030;DHT22;3556;53.500;10.176;2023-08-12T13:45:10;21.90;99.90
7030;DHT22;3556;53.500;10.176;2023-08-12T13:47:36;21.80;99.90
7030;DHT22;3556;53.500;10.176;2023-08-12T13:50:02;21.60;99.90
7030;DHT22;3556;53.500;10.176;2023-08-12T13:52:28;21.50;99.90
7030;DHT22;3556;53.500;10.176;2023-08-12T13:54:53;21.50;99.90
7030;DHT22;3556;53.500;10.176;2023-08-12T13:57:19;21.50;99.90
7030;DHT22;3556;53.500;10.176;2023-08-12T13:59:45;21.50;99.90
7030;DHT22;3556;53.500;10.176;2023-08-12T14:02:11;21.60;99.90
7030;DHT22;3556;53.500;10.176;2023-08-12T14:04:37;21.70;99.90
7030;DHT22;3556;53.500;10.176;2023-08-12T14:07:03;21.80;99.90
7030;DHT22;3556;53.500;10.176;2023-08-12T14:09:29;21.80;99.90
7030;DHT22;3556;53.500;10.176;2023-08-12T14:11:55;21.90;99.90
7030;DHT22;3556;53.500;10.176;2023-08-12T14:14:20;22.00;99.90
7030;DHT22;3556;53.500;10.176;2023-08-12T14:16:46;22.00;99.90
7030;DHT22;3556;53.500;10.176;2023-08-12T14:19:11;21.90;99.90
7030;DHT22;3556;53.500;10.176;2023-08-12T14:21:37;21.90;99.90
7030;DHT22;3556;53.500;10.176;2023-08-12T14:24:03;21.90;99.90
7030;DHT22;3556;53.500;10.176;2023-08-12T14:26:29;21.80;99.90
7030;DHT22;3556;53.500;10.176;2023-08-12T14:28:54;21.80;99.90
7030;DHT22;3556;53.500;10.176;2023-08-12T14:31:20;21.80;99.90
7030;DHT22;3556;53.500;10.176;2023-08-12T14:33:45;21.80;99.90
7030;DHT22;3556;53.500;10.176;2023-08-12T14:36:11;21.80;99.90
7030;DHT22;3556;53.500;10.176;2023-08-12T14:38:36;21.80;99.90
7030;DHT22;3556;53.500;10.176;2023-08-12T14:41:02;21.90;99.90
7030;DHT22;3556;53.500;10.176;2023-08-12T14:43:28;21.90;99.90
7030;DHT22;3556;53.500;10.176;2023-08-12T14:45:53;22.00;99.90
7030;DHT22;3556;53.500;10.176;2023-08-12T14:48:19;22.00;99.90
7030;DHT22;3556;53.500;10.176;2023-08-12T14:50:45;22.00;99.90
7030;DHT22;3556;53.500;10.176;2023-08-12T14:53:10;21.90;99.90
7030;DHT22;3556;53.500;10.176;2023-08-12T14:55:36;21.90;99.90
7030;DHT22;3556;53.500;10.176;2023-08-12T14:58:01;21.90;99.90
7030;DHT22;3556;53.500;10.176;2023-08-12T15:00:27;21.90;99.90
7030;DHT22;3556;53.500;10.176;2023-08-12T15:02:53;21.90;99.90
7030;DHT22;3556;53.500;10.176;2023-08-12T15:05:18;21.90;99.90
7030;DHT22;3556;53.500;10.176;2023-08-12T15:07:44;21.90;99.90
7030;DHT22;3556;53.500;10.176;2023-08-12T15:10:09;21.90;99.90
7030;DHT22;3556;53.500;10.176;2023-08-12T15:12:36;22.00;99.90
7030;DHT22;3556;53.500;10.176;2023-08-12T15:15:02;22.00;99.90
7030;DHT22;3556;53.500;10.176;2023-08-12T15:17:27;22.10;99.90
7030;DHT22;3556;53.500;10.176;2023-08-12T15:19:53;22.20;99.90
7030;DHT22;3556;53.500;10.176;2023-08-12T15:22:19;22.20;99.90
7030;DHT22;3556;53.500;10.176;2023-08-12T15:24:44;22.40;99.90
7030;DHT22;3556;53.500;10.176;2023-08-12T15:27:10;22.60;99.90
7030;DHT22;3556;53.500;10.176;2023-08-12T15:29:35;22.80;99.90
7030;DHT22;3556;53.500;10.176;2023-08-12T15:32:01;22.90;99.90
7030;DHT22;3556;53.500;10.176;2023-08-12T15:34:28;23.00;99.90
7030;DHT22;3556;53.500;10.176;2023-08-12T15:36:54;23.00;99.90
7030;DHT22;3556;53.500;10.176;2023-08-12T15:39:20;23.10;99.90
7030;DHT22;3556;53.500;10.176;2023-08-12T15:41:45;23.20;99.90
7030;DHT22;3556;53.500;10.176;2023-08-12T15:44:11;23.40;99.90
7030;DHT22;3556;53.500;10.176;2023-08-12T15:46:39;23.60;99.90
7030;DHT22;3556;53.500;10.176;2023-08-12T15:49:04;23.70;99.90
7030;DHT22;3556;53.500;10.176;2023-08-12T15:51:31;23.70;99.90
7030;DHT22;3556;53.500;10.176;2023-08-12T15:53:56;23.70;99.90